sensor_id;sensor_type;location;lat;lon;timestamp;P1;durP1;ratioP1;P2;durP2;ratioP2
29200;SDS011;16244;51.956;12.980;2023-06-26T00:00:42;2266.67;;;999.90;;
29200;SDS011;16244;51.956;12.980;2023-06-26T00:03:10;2266.67;;;999.90;;
29200;SDS011;16244;51.956;12.980;2023-06-26T00:05:41;2266.67;;;999.90;;
29200;SDS011;16244;51.956;12.980;2023-06-26T00:08:09;2266.67;;;999.90;;
29200;SDS011;16244;51.956;12.980;2023-06-26T00:10:38;2266.67;;;999.90;;
29200;SDS011;16244;51.956;12.980;2023-06-26T00:13:06;2266.67;;;999.90;;
29200;SDS011;16244;51.956;12.980;2023-06-26T00:15:34;2266.67;;;999.90;;
29200;SDS011;16244;51.956;12.980;2023-06-26T00:18:02;2266.67;;;999.90;;
29200;SDS011;16244;51.956;12.980;2023-06-26T00:20:30;2266.67;;;999.90;;
29200;SDS011;16244;51.956;12.980;2023-06-26T00:22:59;2266.67;;;999.90;;
29200;SDS011;16244;51.956;12.980;2023-06-26T00:25:29;2266.67;;;999.90;;
29200;SDS011;16244;51.956;12.980;2023-06-26T00:27:59;2266.67;;;999.90;;
29200;SDS011;16244;51.956;12.980;2023-06-26T00:30:33;2266.67;;;999.90;;
29200;SDS011;16244;51.956;12.980;2023-06-26T00:33:06;2266.67;;;999.90;;
29200;SDS011;16244;51.956;12.980;2023-06-26T00:35:39;2266.67;;;999.90;;
29200;SDS011;16244;51.956;12.980;2023-06-26T00:38:06;2266.67;;;999.90;;
29200;SDS011;16244;51.956;12.980;2023-06-26T00:40:34;2266.67;;;999.90;;
29200;SDS011;16244;51.956;12.980;2023-06-26T00:43:04;2266.67;;;999.90;;
29200;SDS011;16244;51.956;12.980;2023-06-26T00:45:31;2266.67;;;999.90;;
29200;SDS011;16244;51.956;12.980;2023-06-26T00:47:59;2266.67;;;999.90;;
29200;SDS011;16244;51.956;12.980;2023-06-26T00:50:27;2266.67;;;999.90;;
29200;SDS011;16244;51.956;12.980;2023-06-26T00:52:56;2266.67;;;999.90;;
29200;SDS011;16244;51.956;12.980;2023-06-26T00:55:26;2266.67;;;999.90;;
29200;SDS011;16244;51.956;12.980;2023-06-26T00:57:54;2266.67;;;999.90;;
29200;SDS011;16244;51.956;12.980;2023-06-26T01:00:23;2266.67;;;999.90;;
29200;SDS011;16244;51.956;12.980;2023-06-26T01:02:51;2266.67;;;999.90;;
29200;SDS011;16244;51.956;12.980;2023-06-26T01:05:19;2266.67;;;999.90;;
29200;SDS011;16244;51.956;12.980;2023-06-26T01:07:48;2266.67;;;999.90;;
29200;SDS011;16244;51.956;12.980;2023-06-26T01:10:16;2266.67;;;999.90;;
29200;SDS011;16244;51.956;12.980;2023-06-26T01:12:45;2266.67;;;999.90;;
29200;SDS011;16244;51.956;12.980;2023-06-26T01:15:13;2266.67;;;999.90;;
29200;SDS011;16244;51.956;12.980;2023-06-26T01:17:42;2266.67;;;999.90;;
29200;SDS011;16244;51.956;12.980;2023-06-26T01:20:13;2266.67;;;999.90;;
29200;SDS011;16244;51.956;12.980;2023-06-26T01:22:44;2266.67;;;999.90;;
29200;SDS011;16244;51.956;12.980;2023-06-26T01:25:15;2266.67;;;999.90;;
29200;SDS011;16244;51.956;12.980;2023-06-26T01:27:48;2266.67;;;999.90;;
29200;SDS011;16244;51.956;12.980;2023-06-26T01:30:16;1968.73;;;999.90;;
29200;SDS011;16244;51.956;12.980;2023-06-26T01:32:45;2153.13;;;999.90;;
29200;SDS011;16244;51.956;12.980;2023-06-26T01:35:13;2102.20;;;999.90;;
29200;SDS011;16244;51.956;12.980;2023-06-26T01:37:41;2192.97;;;999.90;;
29200;SDS011;16244;51.956;12.980;2023-06-26T01:40:09;2152.90;;;999.90;;
29200;SDS011;16244;51.956;12.980;2023-06-26T01:42:37;2070.47;;;999.90;;
29200;SDS011;16244;51.956;12.980;2023-06-26T01:45:09;2056.83;;;999.90;;
29200;SDS011;16244;51.956;12.980;2023-06-26T01:47:40;2013.17;;;999.90;;
29200;SDS011;16244;51.956;12.980;2023-06-26T01:50:09;2201.33;;;999.90;;
29200;SDS011;16244;51.956;12.980;2023-06-26T01:52:39;1996.53;;;999.90;;
29200;SDS011;16244;51.956;12.980;2023-06-26T01:55:12;2144.43;;;999.90;;
29200;SDS011;16244;51.956;12.980;2023-06-26T01:57:41;1886.10;;;999.90;;
29200;SDS011;16244;51.956;12.980;2023-06-26T02:00:11;1981.40;;;999.90;;
29200;SDS011;16244;51.956;12.980;2023-06-26T02:02:40;2144.90;;;999.90;;
29200;SDS011;16244;51.956;12.980;2023-06-26T02:05:09;2089.97;;;999.90;;
29200;SDS011;16244;51.956;12.980;2023-06-26T02:07:36;2132.33;;;999.90;;
29200;SDS011;16244;51.956;12.980;2023-06-26T02:10:05;2012.20;;;999.90;;
29200;SDS011;16244;51.956;12.980;2023-06-26T02:12:33;1970.63;;;999.90;;
29200;SDS011;16244;51.956;12.980;2023-06-26T02:15:02;2074.37;;;999.90;;
29200;SDS011;16244;51.956;12.980;2023-06-26T02:17:31;2207.40;;;999.90;;
29200;SDS011;16244;51.956;12.980;2023-06-26T02:19:59;2152.80;;;999.90;;
29200;SDS011;16244;51.956;12.980;2023-06-26T02:22:27;2254.57;;;999.90;;
29200;SDS011;16244;51.956;12.980;2023-06-26T02:24:55;1980.93;;;999.90;;
29200;SDS011;16244;51.956;12.980;2023-06-26T02:27:23;2235.37;;;999.90;;
29200;SDS011;16244;51.956;12.980;2023-06-26T02:29:51;2262.10;;;999.90;;
29200;SDS011;16244;51.956;12.980;2023-06-26T02:32:19;2190.80;;;999.90;;
29200;SDS011;16244;51.956;12.980;2023-06-26T02:34:48;2159.57;;;999.90;;
29200;SDS011;16244;51.956;12.980;2023-06-26T02:37:17;2248.33;;;999.90;;
29200;SDS011;16244;51.956;12.980;2023-06-26T02:39:45;2233.47;;;999.90;;
29200;SDS011;16244;51.956;12.980;2023-06-26T02:42:13;2266.67;;;999.90;;
29200;SDS011;16244;51.956;12.980;2023-06-26T02:44:41;2255.70;;;999.90;;
29200;SDS011;16244;51.956;12.980;2023-06-26T02:47:09;2134.97;;;999.90;;
29200;SDS011;16244;51.956;12.980;2023-06-26T02:49:37;2266.67;;;999.90;;
29200;SDS011;16244;51.956;12.980;2023-06-26T02:52:06;2266.67;;;999.90;;
29200;SDS011;16244;51.956;12.980;2023-06-26T02:54:34;2058.17;;;999.90;;
29200;SDS011;16244;51.956;12.980;2023-06-26T02:57:02;2266.67;;;999.90;;
29200;SDS011;16244;51.956;12.980;2023-06-26T02:59:30;2266.67;;;999.90;;
29200;SDS011;16244;51.956;12.980;2023-06-26T03:01:58;2266.67;;;999.90;;
29200;SDS011;16244;51.956;12.980;2023-06-26T03:04:26;2266.67;;;999.90;;
29200;SDS011;16244;51.956;12.980;2023-06-26T03:06:54;2140.33;;;999.90;;
29200;SDS011;16244;51.956;12.980;2023-06-26T03:09:24;2258.83;;;999.90;;
29200;SDS011;16244;51.956;12.980;2023-06-26T03:11:52;1969.93;;;999.90;;
29200;SDS011;16244;51.956;12.980;2023-06-26T03:14:21;2157.87;;;999.90;;
29200;SDS011;16244;51.956;12.980;2023-06-26T03:16:49;2008.33;;;999.90;;
29200;SDS011;16244;51.956;12.980;2023-06-26T03:19:18;2135.30;;;999.90;;
29200;SDS011;16244;51.956;12.980;2023-06-26T03:21:46;2036.40;;;999.90;;
29200;SDS011;16244;51.956;12.980;2023-06-26T03:24:14;2076.30;;;999.90;;
29200;SDS011;16244;51.956;12.980;2023-06-26T03:26:43;2048.93;;;999.90;;
29200;SDS011;16244;51.956;12.980;2023-06-26T03:29:12;1883.33;;;999.90;;
29200;SDS011;16244;51.956;12.980;2023-06-26T03:31:40;2037.50;;;999.90;;
29200;SDS011;16244;51.956;12.980;2023-06-26T03:34:07;1859.67;;;999.90;;
29200;SDS011;16244;51.956;12.980;2023-06-26T03:36:35;1963.70;;;999.90;;
29200;SDS011;16244;51.956;12.980;2023-06-26T03:39:03;1972.23;;;999.90;;
29200;SDS011;16244;51.956;12.980;2023-06-26T03:41:31;1853.60;;;999.90;;
29200;SDS011;16244;51.956;12.980;2023-06-26T03:44:01;1862.00;;;999.90;;
29200;SDS011;16244;51.956;12.980;2023-06-26T03:46:30;1935.23;;;999.90;;
29200;SDS011;16244;51.956;12.980;2023-06-26T03:48:59;1983.20;;;999.90;;
29200;SDS011;16244;51.956;12.980;2023-06-26T03:51:27;1983.83;;;999.90;;
29200;SDS011;16244;51.956;12.980;2023-06-26T03:53:56;1972.40;;;999.90;;
29200;SDS011;16244;51.956;12.980;2023-06-26T03:56:24;2008.07;;;999.90;;
29200;SDS011;16244;51.956;12.980;2023-06-26T03:58:51;1850.07;;;999.90;;
29200;SDS011;16244;51.956;12.980;2023-06-26T04:01:21;1790.73;;;999.90;;
29200;SDS011;16244;51.956;12.980;2023-06-26T04:03:49;1954.30;;;999.90;;
29200;SDS011;16244;51.956;12.980;2023-06-26T04:06:18;2007.67;;;999.90;;
29200;SDS011;16244;51.956;12.980;2023-06-26T04:08:46;2064.57;;;999.90;;
29200;SDS011;16244;51.956;12.980;2023-06-26T04:11:14;2056.57;;;999.90;;
29200;SDS011;16244;51.956;12.980;2023-06-26T04:13:42;1910.03;;;999.90;;
29200;SDS011;16244;51.956;12.980;2023-06-26T04:16:10;1948.60;;;999.90;;
29200;SDS011;16244;51.956;12.980;2023-06-26T04:18:39;2052.30;;;999.90;;
29200;SDS011;16244;51.956;12.980;2023-06-26T04:21:08;1978.37;;;999.90;;
29200;SDS011;16244;51.956;12.980;2023-06-26T04:23:37;1976.57;;;999.90;;
29200;SDS011;16244;51.956;12.980;2023-06-26T04:26:06;1981.80;;;999.90;;
29200;SDS011;16244;51.956;12.980;2023-06-26T04:28:34;1821.70;;;999.90;;
29200;SDS011;16244;51.956;12.980;2023-06-26T04:31:03;2011.27;;;999.90;;
29200;SDS011;16244;51.956;12.980;2023-06-26T04:33:31;2062.30;;;999.90;;
29200;SDS011;16244;51.956;12.980;2023-06-26T04:36:00;1958.37;;;999.90;;
29200;SDS011;16244;51.956;12.980;2023-06-26T04:38:29;1848.07;;;999.90;;
29200;SDS011;16244;51.956;12.980;2023-06-26T04:40:57;1864.33;;;999.90;;
29200;SDS011;16244;51.956;12.980;2023-06-26T04:43:25;1926.33;;;999.90;;
29200;SDS011;16244;51.956;12.980;2023-06-26T04:45:54;1900.93;;;999.90;;
29200;SDS011;16244;51.956;12.980;2023-06-26T04:48:22;1973.13;;;999.90;;
29200;SDS011;16244;51.956;12.980;2023-06-26T04:50:50;1869.63;;;999.90;;
29200;SDS011;16244;51.956;12.980;2023-06-26T04:53:21;1870.80;;;999.90;;
29200;SDS011;16244;51.956;12.980;2023-06-26T04:55:50;2163.80;;;999.90;;
29200;SDS011;16244;51.956;12.980;2023-06-26T04:58:18;1945.03;;;999.90;;
29200;SDS011;16244;51.956;12.980;2023-06-26T05:00:46;2017.33;;;999.90;;
29200;SDS011;16244;51.956;12.980;2023-06-26T05:03:15;2266.67;;;999.90;;
29200;SDS011;16244;51.956;12.980;2023-06-26T05:05:45;2266.67;;;999.90;;
29200;SDS011;16244;51.956;12.980;2023-06-26T05:08:13;2266.67;;;999.90;;
29200;SDS011;16244;51.956;12.980;2023-06-26T05:10:43;2266.67;;;999.90;;
29200;SDS011;16244;51.956;12.980;2023-06-26T05:13:11;2260.00;;;999.90;;
29200;SDS011;16244;51.956;12.980;2023-06-26T05:15:40;2266.67;;;999.90;;
29200;SDS011;16244;51.956;12.980;2023-06-26T05:18:09;2266.67;;;999.90;;
29200;SDS011;16244;51.956;12.980;2023-06-26T05:20:37;2266.67;;;999.90;;
29200;SDS011;16244;51.956;12.980;2023-06-26T05:23:05;2266.67;;;999.90;;
29200;SDS011;16244;51.956;12.980;2023-06-26T05:25:33;2266.67;;;999.90;;
29200;SDS011;16244;51.956;12.980;2023-06-26T05:28:04;2182.37;;;999.90;;
29200;SDS011;16244;51.956;12.980;2023-06-26T05:30:34;2158.87;;;999.90;;
29200;SDS011;16244;51.956;12.980;2023-06-26T05:33:02;2022.83;;;999.90;;
29200;SDS011;16244;51.956;12.980;2023-06-26T05:35:31;1791.33;;;999.90;;
29200;SDS011;16244;51.956;12.980;2023-06-26T05:38:00;1242.93;;;968.17;;
29200;SDS011;16244;51.956;12.980;2023-06-26T05:40:29;1171.83;;;933.20;;
29200;SDS011;16244;51.956;12.980;2023-06-26T05:42:57;703.17;;;612.27;;
29200;SDS011;16244;51.956;12.980;2023-06-26T05:45:26;500.93;;;451.43;;
29200;SDS011;16244;51.956;12.980;2023-06-26T05:47:55;338.97;;;306.03;;
29200;SDS011;16244;51.956;12.980;2023-06-26T05:50:23;293.07;;;267.60;;
29200;SDS011;16244;51.956;12.980;2023-06-26T05:52:51;269.87;;;242.07;;
29200;SDS011;16244;51.956;12.980;2023-06-26T05:55:19;130.47;;;118.40;;
29200;SDS011;16244;51.956;12.980;2023-06-26T05:57:48;117.63;;;107.27;;
29200;SDS011;16244;51.956;12.980;2023-06-26T06:00:17;97.40;;;88.03;;
29200;SDS011;16244;51.956;12.980;2023-06-26T06:02:47;161.07;;;143.37;;
29200;SDS011;16244;51.956;12.980;2023-06-26T06:05:19;64.53;;;58.83;;
29200;SDS011;16244;51.956;12.980;2023-06-26T06:07:47;104.80;;;95.77;;
29200;SDS011;16244;51.956;12.980;2023-06-26T06:10:15;48.43;;;44.53;;
29200;SDS011;16244;51.956;12.980;2023-06-26T06:12:43;138.30;;;123.60;;
29200;SDS011;16244;51.956;12.980;2023-06-26T06:15:11;108.90;;;97.23;;
29200;SDS011;16244;51.956;12.980;2023-06-26T06:17:39;48.90;;;42.40;;
29200;SDS011;16244;51.956;12.980;2023-06-26T06:20:09;38.00;;;34.70;;
29200;SDS011;16244;51.956;12.980;2023-06-26T06:22:37;27.73;;;25.63;;
29200;SDS011;16244;51.956;12.980;2023-06-26T06:25:05;49.57;;;44.97;;
29200;SDS011;16244;51.956;12.980;2023-06-26T06:27:33;92.73;;;83.57;;
29200;SDS011;16244;51.956;12.980;2023-06-26T06:30:01;71.57;;;64.47;;
29200;SDS011;16244;51.956;12.980;2023-06-26T06:32:29;109.17;;;98.17;;
29200;SDS011;16244;51.956;12.980;2023-06-26T06:34:57;113.50;;;96.33;;
29200;SDS011;16244;51.956;12.980;2023-06-26T06:37:29;131.83;;;117.33;;
29200;SDS011;16244;51.956;12.980;2023-06-26T06:39:57;110.20;;;92.83;;
29200;SDS011;16244;51.956;12.980;2023-06-26T06:42:27;104.53;;;75.53;;
29200;SDS011;16244;51.956;12.980;2023-06-26T06:44:55;104.37;;;87.20;;
29200;SDS011;16244;51.956;12.980;2023-06-26T06:47:23;140.47;;;113.97;;
29200;SDS011;16244;51.956;12.980;2023-06-26T06:49:51;65.03;;;57.97;;
29200;SDS011;16244;51.956;12.980;2023-06-26T06:52:19;120.97;;;100.30;;
29200;SDS011;16244;51.956;12.980;2023-06-26T06:54:52;112.97;;;95.93;;
29200;SDS011;16244;51.956;12.980;2023-06-26T06:57:20;92.90;;;80.50;;
29200;SDS011;16244;51.956;12.980;2023-06-26T06:59:48;24.87;;;21.90;;
29200;SDS011;16244;51.956;12.980;2023-06-26T07:02:17;98.73;;;85.07;;
29200;SDS011;16244;51.956;12.980;2023-06-26T07:04:44;117.22;;;99.20;;
29200;SDS011;16244;51.956;12.980;2023-06-26T07:07:13;150.80;;;101.28;;
29200;SDS011;16244;51.956;12.980;2023-06-26T07:09:41;98.57;;;71.63;;
29200;SDS011;16244;51.956;12.980;2023-06-26T07:12:10;88.68;;;75.10;;
29200;SDS011;16244;51.956;12.980;2023-06-26T07:14:38;92.85;;;73.00;;
29200;SDS011;16244;51.956;12.980;2023-06-26T07:17:06;89.90;;;70.03;;
29200;SDS011;16244;51.956;12.980;2023-06-26T07:19:34;91.50;;;74.50;;
29200;SDS011;16244;51.956;12.980;2023-06-26T07:22:02;83.80;;;71.90;;
29200;SDS011;16244;51.956;12.980;2023-06-26T07:24:30;89.03;;;71.85;;
29200;SDS011;16244;51.956;12.980;2023-06-26T07:26:59;73.78;;;64.20;;
29200;SDS011;16244;51.956;12.980;2023-06-26T07:29:28;71.35;;;59.05;;
29200;SDS011;16244;51.956;12.980;2023-06-26T07:31:56;87.28;;;67.53;;
29200;SDS011;16244;51.956;12.980;2023-06-26T07:34:24;84.90;;;71.70;;
29200;SDS011;16244;51.956;12.980;2023-06-26T07:36:52;79.22;;;63.20;;
29200;SDS011;16244;51.956;12.980;2023-06-26T07:39:20;71.75;;;63.85;;
29200;SDS011;16244;51.956;12.980;2023-06-26T07:41:48;94.00;;;83.85;;
29200;SDS011;16244;51.956;12.980;2023-06-26T07:44:16;75.72;;;63.38;;
29200;SDS011;16244;51.956;12.980;2023-06-26T07:46:45;67.50;;;60.33;;
29200;SDS011;16244;51.956;12.980;2023-06-26T07:49:13;65.53;;;52.60;;
29200;SDS011;16244;51.956;12.980;2023-06-26T07:51:41;76.97;;;61.90;;
29200;SDS011;16244;51.956;12.980;2023-06-26T07:54:09;84.30;;;75.07;;
29200;SDS011;16244;51.956;12.980;2023-06-26T07:56:51;83.97;;;69.43;;
29200;SDS011;16244;51.956;12.980;2023-06-26T07:59:20;71.55;;;62.00;;
29200;SDS011;16244;51.956;12.980;2023-06-26T08:01:50;62.08;;;56.35;;
29200;SDS011;16244;51.956;12.980;2023-06-26T08:04:18;83.18;;;71.03;;
29200;SDS011;16244;51.956;12.980;2023-06-26T08:06:47;65.45;;;54.25;;
29200;SDS011;16244;51.956;12.980;2023-06-26T08:09:15;56.65;;;50.97;;
29200;SDS011;16244;51.956;12.980;2023-06-26T08:11:44;71.10;;;57.15;;
29200;SDS011;16244;51.956;12.980;2023-06-26T08:14:12;49.50;;;44.25;;
29200;SDS011;16244;51.956;12.980;2023-06-26T08:16:40;51.78;;;46.72;;
29200;SDS011;16244;51.956;12.980;2023-06-26T08:19:11;55.95;;;50.10;;
29200;SDS011;16244;51.956;12.980;2023-06-26T08:21:39;75.72;;;58.20;;
29200;SDS011;16244;51.956;12.980;2023-06-26T08:24:07;49.20;;;44.25;;
29200;SDS011;16244;51.956;12.980;2023-06-26T08:26:35;52.75;;;47.42;;
29200;SDS011;16244;51.956;12.980;2023-06-26T08:29:03;51.10;;;45.65;;
29200;SDS011;16244;51.956;12.980;2023-06-26T08:31:34;57.92;;;52.00;;
29200;SDS011;16244;51.956;12.980;2023-06-26T08:34:03;46.90;;;41.80;;
29200;SDS011;16244;51.956;12.980;2023-06-26T08:36:32;55.45;;;49.50;;
29200;SDS011;16244;51.956;12.980;2023-06-26T08:39:03;51.88;;;46.30;;
29200;SDS011;16244;51.956;12.980;2023-06-26T08:41:32;49.65;;;44.42;;
29200;SDS011;16244;51.956;12.980;2023-06-26T08:44:00;66.78;;;56.67;;
29200;SDS011;16244;51.956;12.980;2023-06-26T08:46:28;66.85;;;48.40;;
29200;SDS011;16244;51.956;12.980;2023-06-26T08:48:57;57.22;;;51.30;;
29200;SDS011;16244;51.956;12.980;2023-06-26T08:51:28;50.70;;;45.95;;
29200;SDS011;16244;51.956;12.980;2023-06-26T08:53:59;62.33;;;52.58;;
29200;SDS011;16244;51.956;12.980;2023-06-26T08:56:28;47.10;;;42.63;;
29200;SDS011;16244;51.956;12.980;2023-06-26T08:58:56;54.53;;;45.10;;
29200;SDS011;16244;51.956;12.980;2023-06-26T09:01:24;46.78;;;41.92;;
29200;SDS011;16244;51.956;12.980;2023-06-26T09:03:53;50.65;;;45.47;;
29200;SDS011;16244;51.956;12.980;2023-06-26T09:06:21;44.05;;;39.58;;
29200;SDS011;16244;51.956;12.980;2023-06-26T09:08:49;44.50;;;40.03;;
29200;SDS011;16244;51.956;12.980;2023-06-26T09:11:18;49.88;;;44.47;;
29200;SDS011;16244;51.956;12.980;2023-06-26T09:13:46;50.53;;;45.15;;
29200;SDS011;16244;51.956;12.980;2023-06-26T09:16:14;47.65;;;43.05;;
29200;SDS011;16244;51.956;12.980;2023-06-26T09:18:44;58.90;;;47.00;;
29200;SDS011;16244;51.956;12.980;2023-06-26T09:21:13;45.65;;;40.70;;
29200;SDS011;16244;51.956;12.980;2023-06-26T09:23:42;62.28;;;48.00;;
29200;SDS011;16244;51.956;12.980;2023-06-26T09:26:10;45.65;;;40.75;;
29200;SDS011;16244;51.956;12.980;2023-06-26T09:28:41;49.85;;;44.95;;
29200;SDS011;16244;51.956;12.980;2023-06-26T09:31:10;48.10;;;43.53;;
29200;SDS011;16244;51.956;12.980;2023-06-26T09:33:38;41.25;;;37.05;;
29200;SDS011;16244;51.956;12.980;2023-06-26T09:36:09;46.38;;;41.63;;
29200;SDS011;16244;51.956;12.980;2023-06-26T09:38:46;41.28;;;36.97;;
29200;SDS011;16244;51.956;12.980;2023-06-26T09:41:15;48.28;;;43.70;;
29200;SDS011;16244;51.956;12.980;2023-06-26T09:43:48;51.65;;;46.20;;
29200;SDS011;16244;51.956;12.980;2023-06-26T09:46:16;50.92;;;44.22;;
29200;SDS011;16244;51.956;12.980;2023-06-26T09:48:44;48.15;;;43.67;;
29200;SDS011;16244;51.956;12.980;2023-06-26T09:51:12;45.40;;;41.10;;
29200;SDS011;16244;51.956;12.980;2023-06-26T09:53:41;53.05;;;44.95;;
29200;SDS011;16244;51.956;12.980;2023-06-26T09:56:14;47.72;;;42.67;;
29200;SDS011;16244;51.956;12.980;2023-06-26T09:58:44;45.03;;;40.70;;
29200;SDS011;16244;51.956;12.980;2023-06-26T10:01:13;46.13;;;41.75;;
29200;SDS011;16244;51.956;12.980;2023-06-26T10:03:41;43.63;;;39.50;;
29200;SDS011;16244;51.956;12.980;2023-06-26T10:06:09;48.30;;;43.10;;
29200;SDS011;16244;51.956;12.980;2023-06-26T10:08:39;60.85;;;54.25;;
29200;SDS011;16244;51.956;12.980;2023-06-26T10:11:07;57.60;;;48.90;;
29200;SDS011;16244;51.956;12.980;2023-06-26T10:13:38;45.60;;;41.42;;
29200;SDS011;16244;51.956;12.980;2023-06-26T10:16:06;47.97;;;43.03;;
29200;SDS011;16244;51.956;12.980;2023-06-26T10:18:36;43.17;;;39.00;;
29200;SDS011;16244;51.956;12.980;2023-06-26T10:21:06;45.58;;;40.65;;
29200;SDS011;16244;51.956;12.980;2023-06-26T10:23:34;42.67;;;38.75;;
29200;SDS011;16244;51.956;12.980;2023-06-26T10:26:02;45.00;;;40.40;;
29200;SDS011;16244;51.956;12.980;2023-06-26T10:28:31;48.10;;;43.47;;
29200;SDS011;16244;51.956;12.980;2023-06-26T10:31:00;36.72;;;33.22;;
29200;SDS011;16244;51.956;12.980;2023-06-26T10:33:28;45.17;;;38.90;;
29200;SDS011;16244;51.956;12.980;2023-06-26T10:38:52;40.95;;;37.20;;
29200;SDS011;16244;51.956;12.980;2023-06-26T10:41:20;43.65;;;39.17;;
29200;SDS011;16244;51.956;12.980;2023-06-26T10:43:50;52.20;;;47.33;;
29200;SDS011;16244;51.956;12.980;2023-06-26T10:46:18;50.13;;;44.95;;
29200;SDS011;16244;51.956;12.980;2023-06-26T10:48:56;45.50;;;41.42;;
29200;SDS011;16244;51.956;12.980;2023-06-26T10:51:24;40.92;;;37.08;;
29200;SDS011;16244;51.956;12.980;2023-06-26T10:53:57;48.83;;;43.67;;
29200;SDS011;16244;51.956;12.980;2023-06-26T10:59:16;42.10;;;38.40;;
29200;SDS011;16244;51.956;12.980;2023-06-26T11:01:45;43.60;;;39.05;;
29200;SDS011;16244;51.956;12.980;2023-06-26T11:04:13;43.53;;;39.50;;
29200;SDS011;16244;51.956;12.980;2023-06-26T11:06:45;51.75;;;44.70;;
29200;SDS011;16244;51.956;12.980;2023-06-26T11:09:17;43.47;;;39.15;;
29200;SDS011;16244;51.956;12.980;2023-06-26T11:11:55;46.88;;;42.47;;
29200;SDS011;16244;51.956;12.980;2023-06-26T11:14:28;48.83;;;44.05;;
29200;SDS011;16244;51.956;12.980;2023-06-26T11:16:56;39.38;;;35.58;;
29200;SDS011;16244;51.956;12.980;2023-06-26T11:19:25;36.60;;;33.30;;
29200;SDS011;16244;51.956;12.980;2023-06-26T11:22:03;39.90;;;35.95;;
29200;SDS011;16244;51.956;12.980;2023-06-26T11:24:33;37.40;;;33.97;;
29200;SDS011;16244;51.956;12.980;2023-06-26T11:27:02;37.45;;;30.75;;
29200;SDS011;16244;51.956;12.980;2023-06-26T11:29:31;40.67;;;36.75;;
29200;SDS011;16244;51.956;12.980;2023-06-26T11:32:00;43.95;;;37.92;;
29200;SDS011;16244;51.956;12.980;2023-06-26T11:34:32;49.15;;;44.47;;
29200;SDS011;16244;51.956;12.980;2023-06-26T11:37:00;40.00;;;36.42;;
29200;SDS011;16244;51.956;12.980;2023-06-26T11:39:29;47.17;;;40.25;;
29200;SDS011;16244;51.956;12.980;2023-06-26T11:42:00;39.83;;;36.20;;
29200;SDS011;16244;51.956;12.980;2023-06-26T11:44:29;39.50;;;35.55;;
29200;SDS011;16244;51.956;12.980;2023-06-26T11:46:58;46.75;;;41.90;;
29200;SDS011;16244;51.956;12.980;2023-06-26T11:49:26;47.22;;;43.30;;
29200;SDS011;16244;51.956;12.980;2023-06-26T11:51:56;39.13;;;35.63;;
29200;SDS011;16244;51.956;12.980;2023-06-26T11:54:24;46.70;;;39.53;;
29200;SDS011;16244;51.956;12.980;2023-06-26T11:56:53;43.25;;;38.47;;
29200;SDS011;16244;51.956;12.980;2023-06-26T11:59:24;42.40;;;38.03;;
29200;SDS011;16244;51.956;12.980;2023-06-26T12:01:52;51.92;;;47.33;;
29200;SDS011;16244;51.956;12.980;2023-06-26T12:04:20;35.03;;;31.63;;
29200;SDS011;16244;51.956;12.980;2023-06-26T12:06:49;38.65;;;35.15;;
29200;SDS011;16244;51.956;12.980;2023-06-26T12:09:18;42.65;;;38.75;;
29200;SDS011;16244;51.956;12.980;2023-06-26T12:11:47;38.15;;;34.13;;
29200;SDS011;16244;51.956;12.980;2023-06-26T12:14:16;36.90;;;33.25;;
29200;SDS011;16244;51.956;12.980;2023-06-26T12:16:47;42.47;;;38.42;;
29200;SDS011;16244;51.956;12.980;2023-06-26T12:19:15;48.83;;;43.63;;
29200;SDS011;16244;51.956;12.980;2023-06-26T12:21:44;40.65;;;36.83;;
29200;SDS011;16244;51.956;12.980;2023-06-26T12:24:13;45.20;;;40.33;;
29200;SDS011;16244;51.956;12.980;2023-06-26T12:26:43;46.13;;;41.38;;
29200;SDS011;16244;51.956;12.980;2023-06-26T12:29:12;48.33;;;43.22;;
29200;SDS011;16244;51.956;12.980;2023-06-26T12:31:40;42.22;;;38.05;;
29200;SDS011;16244;51.956;12.980;2023-06-26T12:34:10;47.90;;;42.90;;
29200;SDS011;16244;51.956;12.980;2023-06-26T12:36:40;48.25;;;43.65;;
29200;SDS011;16244;51.956;12.980;2023-06-26T12:39:09;35.45;;;32.03;;
29200;SDS011;16244;51.956;12.980;2023-06-26T12:41:47;45.05;;;40.72;;
29200;SDS011;16244;51.956;12.980;2023-06-26T12:44:29;46.55;;;41.70;;
29200;SDS011;16244;51.956;12.980;2023-06-26T12:47:00;47.40;;;42.25;;
29200;SDS011;16244;51.956;12.980;2023-06-26T12:49:34;41.00;;;37.05;;
29200;SDS011;16244;51.956;12.980;2023-06-26T12:52:04;44.72;;;40.28;;
29200;SDS011;16244;51.956;12.980;2023-06-26T12:54:32;48.78;;;44.38;;
29200;SDS011;16244;51.956;12.980;2023-06-26T12:57:00;61.03;;;54.58;;
29200;SDS011;16244;51.956;12.980;2023-06-26T12:59:29;44.75;;;40.60;;
29200;SDS011;16244;51.956;12.980;2023-06-26T13:01:57;46.30;;;41.72;;
29200;SDS011;16244;51.956;12.980;2023-06-26T13:04:25;50.83;;;45.55;;
29200;SDS011;16244;51.956;12.980;2023-06-26T13:06:55;47.55;;;42.90;;
29200;SDS011;16244;51.956;12.980;2023-06-26T13:09:23;48.13;;;43.65;;
29200;SDS011;16244;51.956;12.980;2023-06-26T13:11:51;43.42;;;39.50;;
29200;SDS011;16244;51.956;12.980;2023-06-26T13:14:19;44.20;;;37.15;;
29200;SDS011;16244;51.956;12.980;2023-06-26T13:16:47;45.22;;;40.85;;
29200;SDS011;16244;51.956;12.980;2023-06-26T13:19:15;43.38;;;39.20;;
29200;SDS011;16244;51.956;12.980;2023-06-26T13:21:43;44.03;;;40.08;;
29200;SDS011;16244;51.956;12.980;2023-06-26T13:24:12;47.95;;;43.28;;
29200;SDS011;16244;51.956;12.980;2023-06-26T13:26:41;49.75;;;45.28;;
29200;SDS011;16244;51.956;12.980;2023-06-26T13:29:09;41.05;;;36.83;;
29200;SDS011;16244;51.956;12.980;2023-06-26T13:31:37;45.03;;;40.88;;
29200;SDS011;16244;51.956;12.980;2023-06-26T13:34:05;46.97;;;42.40;;
29200;SDS011;16244;51.956;12.980;2023-06-26T13:36:33;50.60;;;45.75;;
29200;SDS011;16244;51.956;12.980;2023-06-26T13:39:01;46.78;;;41.83;;
29200;SDS011;16244;51.956;12.980;2023-06-26T13:41:30;51.50;;;46.45;;
29200;SDS011;16244;51.956;12.980;2023-06-26T13:43:58;45.25;;;40.47;;
29200;SDS011;16244;51.956;12.980;2023-06-26T13:46:26;42.13;;;37.42;;
29200;SDS011;16244;51.956;12.980;2023-06-26T13:48:54;55.17;;;50.33;;
29200;SDS011;16244;51.956;12.980;2023-06-26T13:51:22;43.38;;;39.25;;
29200;SDS011;16244;51.956;12.980;2023-06-26T13:53:50;61.33;;;50.33;;
29200;SDS011;16244;51.956;12.980;2023-06-26T13:56:18;41.20;;;37.15;;
29200;SDS011;16244;51.956;12.980;2023-06-26T13:58:50;50.38;;;45.50;;
29200;SDS011;16244;51.956;12.980;2023-06-26T14:01:17;41.17;;;37.47;;
29200;SDS011;16244;51.956;12.980;2023-06-26T14:03:46;38.15;;;34.85;;
29200;SDS011;16244;51.956;12.980;2023-06-26T14:06:13;40.53;;;36.38;;
29200;SDS011;16244;51.956;12.980;2023-06-26T14:08:41;46.55;;;41.70;;